Startpagina
METAR-TAF:

METAR-TAF

Vliegvelden :

Cúcuta, Colombia

breedte: 07-56N, lengte: 072-31W, hoogte: 250 m

Actueel weer

Dit bericht is 3 uur en het 43 minuten geleden gemaakt, om 05:00 UTC
Weinig wind
Temperatuur 26°C
Vochtigheid 84%
Druk 1014 hPa
Zicht 10 km of meer
Verspreide wolken op 1800 ft
Verspreide wolken op 8000 ft

METAR: SKCC 210500Z 00000KT 9999 SCT018 SCT080 26/23 A2995

Tijdstip: 03:43 (08:43 UTC)

Verwachting

Dit bericht is 4 uur en het 13 minuten geleden gemaakt, om 04:30 UTC
Verwachting geldig van 21 om 06 UTC tot 22 om 06 UTC
Wind 2 kt uit variabele richting
Zicht 10 km of meer
Verspreide wolken op 2000 ft
Verspreide wolken op 10000 ft
Wijzigt naar
van 21 om 14 UTC tot 21 om 16 UTC
Wind 12 kt uit het noorden
Wijzigt naar
van 21 om 23 UTC tot 22 om 01 UTC
Wind 2 kt uit variabele richting

TAF: SKCC 210430Z 2106/2206 VRB02KT 9999 SCT020 SCT100 BECMG 2114/2116 35012KT BECMG 2123/2201 VRB02KT TX31/2119Z TN23/2111Z

Waarnemingen en weersverwachtingen van meer dan 4000 vliegvelden (METAR en TAF).

De beschikbare stations zijn de gele en rode punten op de kaart.

Ga met uw muis naar het station om de naam te zien.

Klik dan om waarnemingen en weersverwachtingen te zien.

kaart wijzigen: klik op de groene knoppen met een zwart kruis om in te zoomen, op de groene knop met een streepje om uit te zoomen of op de groene pijlen voor aangrenzende kaarten.


METAR-TAF: